createdAt,value
2019-04-06T00:00:12.609Z,0
2019-04-06T00:00:52.943Z,0
2019-04-06T00:01:33.415Z,0
2019-04-06T00:02:13.720Z,0
2019-04-06T00:02:54.215Z,0
2019-04-06T00:03:34.910Z,0
2019-04-06T00:04:15.333Z,0
2019-04-06T00:04:55.936Z,0
2019-04-06T00:05:36.345Z,0
2019-04-06T00:06:16.821Z,0
2019-04-06T00:06:57.197Z,0
2019-04-06T00:07:37.600Z,0
2019-04-06T00:08:17.974Z,0
2019-04-06T00:08:58.388Z,0
2019-04-06T00:09:38.903Z,0
2019-04-06T00:10:19.347Z,0
2019-04-06T00:10:59.825Z,0
2019-04-06T00:11:40.126Z,0
2019-04-06T00:12:20.603Z,0
2019-04-06T00:13:01.163Z,0
2019-04-06T00:13:41.723Z,0
2019-04-06T00:14:22.057Z,0
2019-04-06T00:15:02.513Z,0
2019-04-06T00:15:42.828Z,0
2019-04-06T00:16:23.254Z,0
2019-04-06T00:17:03.773Z,0
2019-04-06T00:17:44.176Z,0
2019-04-06T00:18:24.637Z,0
2019-04-06T00:19:04.999Z,0
2019-04-06T00:19:45.525Z,0
2019-04-06T00:20:25.878Z,0
2019-04-06T00:21:06.309Z,0
2019-04-06T00:21:46.738Z,0
2019-04-06T00:22:27.254Z,0
2019-04-06T00:23:07.704Z,0
2019-04-06T00:23:48.051Z,0
2019-04-06T00:24:28.642Z,0
2019-04-06T00:25:09.098Z,0
2019-04-06T00:25:49.629Z,0
2019-04-06T00:26:30.069Z,0
2019-04-06T00:27:10.533Z,0
2019-04-06T00:27:50.912Z,0
2019-04-06T00:28:31.481Z,0
2019-04-06T00:29:11.923Z,0
2019-04-06T00:29:52.411Z,0
2019-04-06T00:30:32.856Z,0
2019-04-06T00:31:13.170Z,0
2019-04-06T00:31:53.607Z,0
2019-04-06T00:32:50.955Z,0
2019-04-06T00:33:31.071Z,0
2019-04-06T00:34:11.469Z,0
2019-04-06T00:34:51.853Z,0
2019-04-06T00:35:32.326Z,0
2019-04-06T00:36:12.681Z,0
2019-04-06T00:36:53.218Z,0
2019-04-06T00:37:33.648Z,0
2019-04-06T00:38:14.108Z,0
2019-04-06T00:38:54.470Z,0
2019-04-06T00:39:34.989Z,0
2019-04-06T00:42:19.843Z,0
2019-04-06T00:43:13.287Z,0
2019-04-06T00:44:05.539Z,0
2019-04-06T00:44:57.799Z,0
2019-04-06T00:45:50.297Z,0
2019-04-06T00:46:42.757Z,0
2019-04-06T00:47:35.426Z,0
2019-04-06T00:48:27.837Z,0
2019-04-06T00:49:19.863Z,0
2019-04-06T00:50:12.315Z,0
2019-04-06T00:51:04.665Z,0
2019-04-06T00:51:57.150Z,0
2019-04-06T00:52:49.140Z,0
2019-04-06T00:53:41.973Z,0
2019-04-06T00:54:34.228Z,0
2019-04-06T00:55:26.481Z,0
2019-04-06T00:56:18.786Z,0
2019-04-06T00:57:11.873Z,0
2019-04-06T00:58:04.272Z,0
2019-04-06T00:58:57.970Z,0
2019-04-06T00:59:50.404Z,0
2019-04-06T01:00:42.329Z,0
2019-04-06T01:01:34.773Z,0
2019-04-06T01:02:26.807Z,0
2019-04-06T01:03:19.160Z,0
2019-04-06T01:04:11.456Z,0
2019-04-06T01:05:03.383Z,0
2019-04-06T01:05:56.725Z,0
2019-04-06T01:06:48.834Z,0
2019-04-06T01:07:41.097Z,0
2019-04-06T01:08:32.835Z,0
2019-04-06T01:09:25.424Z,0
2019-04-06T01:10:18.027Z,0
2019-04-06T01:11:10.252Z,0
2019-04-06T01:12:02.762Z,0
2019-04-06T01:12:55.022Z,0
2019-04-06T01:13:47.696Z,0
2019-04-06T01:14:40.588Z,0
2019-04-06T01:15:32.640Z,0
2019-04-06T01:16:24.920Z,0
2019-04-06T01:17:17.790Z,0
2019-04-06T01:18:09.782Z,0
2019-04-06T01:19:02.307Z,0
2019-04-06T01:19:54.514Z,0
2019-04-06T01:20:47.340Z,0
2019-04-06T01:21:39.427Z,0
2019-04-06T01:22:32.541Z,0
2019-04-06T01:23:24.506Z,0
2019-04-06T01:24:17.079Z,0
2019-04-06T01:25:09.191Z,0
2019-04-06T01:26:07.269Z,0
2019-04-06T01:26:55.315Z,0
2019-04-06T01:27:47.470Z,0
2019-04-06T01:28:39.580Z,0
2019-04-06T01:29:31.694Z,0
2019-04-06T01:30:23.778Z,0
2019-04-06T01:31:16.516Z,0
2019-04-06T01:32:09.180Z,0
2019-04-06T01:33:02.639Z,0
2019-04-06T01:33:54.724Z,0
2019-04-06T01:34:47.763Z,0
2019-04-06T01:35:39.793Z,0
2019-04-06T01:36:32.199Z,0
2019-04-06T01:37:24.837Z,0
2019-04-06T01:38:17.579Z,0
2019-04-06T01:39:09.760Z,0
2019-04-06T01:40:02.094Z,0
2019-04-06T01:40:54.160Z,0
2019-04-06T01:41:46.242Z,0
2019-04-06T01:42:38.435Z,0
2019-04-06T01:43:30.986Z,0
2019-04-06T01:44:22.898Z,0
2019-04-06T01:45:15.200Z,0
2019-04-06T01:46:07.252Z,0
2019-04-06T01:46:59.652Z,0
2019-04-06T01:47:52.595Z,0
2019-04-06T01:48:44.839Z,0
2019-04-06T01:49:36.688Z,0
2019-04-06T01:50:28.881Z,0
2019-04-06T01:51:20.828Z,0
2019-04-06T01:52:13.184Z,0
2019-04-06T01:53:05.306Z,0
2019-04-06T01:53:57.752Z,0
2019-04-06T01:54:50.003Z,0
2019-04-06T01:55:42.239Z,0
2019-04-06T01:56:34.780Z,0
2019-04-06T01:57:27.861Z,0
2019-04-06T01:58:20.263Z,0
2019-04-06T01:59:12.979Z,0
2019-04-06T02:00:06.618Z,0
2019-04-06T02:00:58.751Z,0
2019-04-06T02:01:51.240Z,0
2019-04-06T02:02:43.788Z,0
2019-04-06T02:03:36.154Z,0
2019-04-06T02:04:28.393Z,0
2019-04-06T02:05:20.718Z,0
2019-04-06T02:06:14.252Z,0
2019-04-06T02:07:06.733Z,0
2019-04-06T02:07:59.546Z,0
2019-04-06T02:08:51.798Z,0
2019-04-06T02:09:43.938Z,0
2019-04-06T02:10:36.979Z,0
2019-04-06T02:11:30.969Z,0
2019-04-06T02:12:23.288Z,0
2019-04-06T02:13:17.620Z,0
2019-04-06T02:14:09.620Z,0
2019-04-06T02:15:01.593Z,0
2019-04-06T02:15:54.080Z,0
2019-04-06T02:16:46.182Z,0
2019-04-06T02:17:34.995Z,0
2019-04-06T02:18:15.046Z,0
2019-04-06T02:18:55.627Z,0
2019-04-06T02:19:36.068Z,0
2019-04-06T02:20:16.596Z,0
2019-04-06T02:20:56.973Z,0
2019-04-06T02:21:37.453Z,0
2019-04-06T02:22:17.886Z,0
2019-04-06T02:22:58.241Z,0
2019-04-06T02:23:38.645Z,0
2019-04-06T02:24:19.275Z,0
2019-04-06T02:24:59.655Z,0
2019-04-06T02:25:40.080Z,0
2019-04-06T02:26:29.356Z,0
2019-04-06T02:27:01.022Z,0
2019-04-06T02:27:41.516Z,0
2019-04-06T02:28:21.917Z,0
2019-04-06T02:29:02.462Z,0
2019-04-06T02:29:42.707Z,0
2019-04-06T02:30:23.178Z,0
2019-04-06T02:31:03.699Z,0
2019-04-06T02:31:44.037Z,0
2019-04-06T02:32:24.467Z,0
2019-04-06T02:33:05.041Z,0
2019-04-06T02:33:45.416Z,0
2019-04-06T02:34:25.972Z,0
2019-04-06T02:35:06.350Z,0
2019-04-06T02:35:47.064Z,0
2019-04-06T02:36:27.200Z,0
2019-04-06T02:37:07.853Z,0
2019-04-06T02:37:48.199Z,0
2019-04-06T02:38:28.667Z,0
2019-04-06T02:39:09.046Z,0
2019-04-06T02:39:49.581Z,0
2019-04-06T02:40:29.914Z,0
2019-04-06T02:41:10.350Z,0
2019-04-06T02:41:50.918Z,0
2019-04-06T02:42:31.337Z,0
2019-04-06T02:43:11.680Z,0
2019-04-06T02:43:52.156Z,0
2019-04-06T02:44:32.656Z,0
2019-04-06T02:45:13.054Z,0
2019-04-06T02:45:53.689Z,0
2019-04-06T02:46:34.284Z,0
2019-04-06T02:47:14.503Z,0
2019-04-06T02:47:55.069Z,0
2019-04-06T02:48:35.295Z,0
2019-04-06T02:49:15.836Z,0
2019-04-06T02:49:56.134Z,0
2019-04-06T02:50:36.692Z,0
2019-04-06T02:51:16.975Z,0
2019-04-06T02:51:57.514Z,0
2019-04-06T02:52:38.028Z,0
2019-04-06T02:53:18.282Z,0
2019-04-06T02:53:58.715Z,0
2019-04-06T02:54:39.152Z,0
2019-04-06T02:55:19.627Z,0
2019-04-06T02:55:59.999Z,0
2019-04-06T02:56:46.101Z,0
2019-04-06T02:57:20.786Z,0
2019-04-06T02:58:01.287Z,0
2019-04-06T02:58:41.665Z,0
2019-04-06T02:59:22.060Z,0
2019-04-06T03:00:02.423Z,0
2019-04-06T03:00:42.884Z,0
2019-04-06T03:01:23.450Z,0
2019-04-06T03:02:03.739Z,0
2019-04-06T03:02:44.007Z,0
2019-04-06T03:03:24.559Z,0
2019-04-06T03:04:04.936Z,0
2019-04-06T03:04:45.424Z,0
2019-04-06T03:05:25.790Z,0
2019-04-06T03:06:06.167Z,0
2019-04-06T03:06:46.863Z,0
2019-04-06T03:07:27.391Z,0
2019-04-06T03:08:07.753Z,0
2019-04-06T03:08:48.155Z,0
2019-04-06T03:09:28.554Z,0
2019-04-06T03:10:09.124Z,0
2019-04-06T03:10:49.555Z,0
2019-04-06T03:11:29.916Z,0
2019-04-06T03:12:10.408Z,0
2019-04-06T03:12:50.746Z,0
2019-04-06T03:13:31.296Z,0
2019-04-06T03:14:11.620Z,0
2019-04-06T03:14:51.980Z,0
2019-04-06T03:15:32.462Z,0
2019-04-06T03:16:12.859Z,0
2019-04-06T03:16:53.143Z,0
2019-04-06T03:17:33.604Z,0
2019-04-06T03:18:14.035Z,0
2019-04-06T03:18:54.501Z,0
2019-04-06T03:19:34.953Z,0
2019-04-06T03:20:15.298Z,0
2019-04-06T03:20:55.745Z,0
2019-04-06T03:21:36.032Z,0
2019-04-06T03:22:16.517Z,0
2019-04-06T03:22:56.870Z,0
2019-04-06T03:23:49.428Z,0
2019-04-06T03:24:17.712Z,0
2019-04-06T03:24:58.220Z,0
2019-04-06T03:25:38.806Z,0
2019-04-06T03:26:19.245Z,0
2019-04-06T03:27:02.379Z,0
2019-04-06T03:27:40.083Z,0
2019-04-06T03:28:20.514Z,0
2019-04-06T03:29:00.849Z,0
2019-04-06T03:29:56.110Z,0
2019-04-06T03:30:21.792Z,0
2019-04-06T03:31:02.120Z,0
2019-04-06T03:31:42.661Z,0
2019-04-06T03:32:22.948Z,0
2019-04-06T03:33:03.717Z,0
2019-04-06T03:33:44.318Z,0
2019-04-06T03:34:24.568Z,0
2019-04-06T03:35:05.046Z,0
2019-04-06T03:35:48.380Z,0
2019-04-06T03:36:25.894Z,0
2019-04-06T03:37:06.309Z,0
2019-04-06T03:37:46.782Z,0
2019-04-06T03:38:27.156Z,0
2019-04-06T03:39:07.627Z,0
2019-04-06T03:39:48.035Z,0
2019-04-06T03:40:28.467Z,0
2019-04-06T03:41:08.941Z,0
2019-04-06T03:41:49.439Z,0
2019-04-06T03:42:29.739Z,0
2019-04-06T03:43:10.224Z,0
2019-04-06T03:43:50.832Z,0
2019-04-06T03:44:31.190Z,0
2019-04-06T03:45:11.625Z,0
2019-04-06T03:45:52.066Z,0
2019-04-06T03:46:32.539Z,0
2019-04-06T03:47:12.960Z,0
2019-04-06T03:47:53.340Z,0
2019-04-06T03:48:33.768Z,0
2019-04-06T03:49:14.191Z,0
2019-04-06T03:49:54.606Z,0
2019-04-06T03:50:35.016Z,0
2019-04-06T03:51:15.404Z,0
2019-04-06T03:51:55.757Z,0
2019-04-06T03:52:36.246Z,0
2019-04-06T03:53:16.647Z,0
2019-04-06T03:53:57.026Z,0
2019-04-06T03:54:37.543Z,0
2019-04-06T03:55:17.891Z,0
2019-04-06T03:55:58.277Z,0
2019-04-06T03:56:38.739Z,0
2019-04-06T03:57:19.207Z,0
2019-04-06T03:57:59.625Z,0
2019-04-06T03:58:40.184Z,0
2019-04-06T03:59:20.371Z,0
2019-04-06T04:00:00.948Z,0
2019-04-06T04:00:41.292Z,0
2019-04-06T04:01:21.725Z,0
2019-04-06T04:02:02.132Z,0
2019-04-06T04:02:42.601Z,0
2019-04-06T04:03:22.931Z,0
2019-04-06T04:04:04.236Z,0
2019-04-06T04:04:43.965Z,0
2019-04-06T04:05:24.378Z,0
2019-04-06T04:06:04.873Z,0
2019-04-06T04:06:45.131Z,0
2019-04-06T04:07:25.724Z,0
2019-04-06T04:08:06.270Z,0
2019-04-06T04:08:46.688Z,0
2019-04-06T04:09:27.307Z,0
2019-04-06T04:10:07.886Z,0
2019-04-06T04:10:48.326Z,0
2019-04-06T04:11:28.691Z,0
2019-04-06T04:12:09.169Z,0
2019-04-06T04:12:49.536Z,0
2019-04-06T04:13:30.064Z,0
2019-04-06T04:14:10.637Z,0
2019-04-06T04:14:50.970Z,0
2019-04-06T04:15:31.409Z,0
2019-04-06T04:16:11.769Z,0
2019-04-06T04:16:52.221Z,0
2019-04-06T04:17:32.776Z,0
2019-04-06T04:18:13.121Z,0
2019-04-06T04:18:53.481Z,0
2019-04-06T04:19:33.877Z,0
2019-04-06T04:20:14.539Z,0
2019-04-06T04:20:55.099Z,0
2019-04-06T04:21:35.473Z,0
2019-04-06T04:22:16.019Z,0
2019-04-06T04:22:56.333Z,0
2019-04-06T04:23:36.619Z,0
2019-04-06T04:24:17.018Z,0
2019-04-06T04:24:57.520Z,0
2019-04-06T04:25:37.812Z,0
2019-04-06T04:26:18.231Z,0
2019-04-06T04:26:58.650Z,0
2019-04-06T04:27:39.083Z,0
2019-04-06T05:07:15.651Z,0
2019-04-06T05:07:56.068Z,0
2019-04-06T05:08:36.490Z,0
2019-04-06T05:09:17.080Z,0
2019-04-06T05:09:57.357Z,0
2019-04-06T05:10:37.734Z,0
2019-04-06T05:11:18.142Z,0
2019-04-06T05:11:58.586Z,0
2019-04-06T05:12:39.001Z,0
2019-04-06T05:13:19.421Z,5
2019-04-06T05:13:59.817Z,5
2019-04-06T05:14:40.248Z,5
2019-04-06T05:15:20.674Z,5
2019-04-06T05:16:01.195Z,5
2019-04-06T05:16:41.492Z,5
2019-04-06T05:17:22.113Z,5
2019-04-06T05:18:02.345Z,5
2019-04-06T05:18:42.772Z,5
2019-04-06T05:19:23.180Z,5
2019-04-06T05:20:03.736Z,5
2019-04-06T05:20:43.998Z,5
2019-04-06T05:21:24.401Z,5
2019-04-06T05:22:04.846Z,5
2019-04-06T05:22:45.264Z,5
2019-04-06T05:23:25.667Z,5
2019-04-06T05:24:06.369Z,5
2019-04-06T05:24:46.531Z,5
2019-04-06T05:25:26.954Z,5
2019-04-06T05:26:07.481Z,5
2019-04-06T05:26:47.786Z,5
2019-04-06T05:27:28.770Z,5
2019-04-06T05:28:09.203Z,5
2019-04-06T05:28:49.637Z,5
2019-04-06T05:29:30.098Z,5
2019-04-06T05:30:10.466Z,5
2019-04-06T05:30:50.894Z,5
2019-04-06T05:31:31.440Z,5
2019-04-06T05:32:11.734Z,5
2019-04-06T05:32:52.138Z,5
2019-04-06T05:33:32.575Z,5
2019-04-06T05:34:13.015Z,5
2019-04-06T05:34:53.406Z,5
2019-04-06T05:35:33.845Z,5
2019-04-06T05:36:14.239Z,5
2019-04-06T05:36:54.749Z,5
2019-04-06T05:37:35.042Z,5
2019-04-06T05:38:15.483Z,5
2019-04-06T05:38:55.846Z,5
2019-04-06T05:39:36.253Z,5
2019-04-06T05:40:16.703Z,5
2019-04-06T05:40:57.084Z,10
2019-04-06T05:41:37.523Z,10
2019-04-06T05:42:17.961Z,10
2019-04-06T05:42:58.363Z,10
2019-04-06T05:43:38.794Z,10
2019-04-06T05:44:19.226Z,15
2019-04-06T05:44:59.633Z,15
2019-04-06T05:47:32.458Z,20
2019-04-06T05:48:12.824Z,20
2019-04-06T05:48:53.243Z,20
2019-04-06T05:49:33.635Z,20
2019-04-06T05:50:14.196Z,20
2019-04-06T05:50:54.469Z,20
2019-04-06T05:51:34.872Z,20
2019-04-06T05:52:15.309Z,20
2019-04-06T05:52:55.821Z,20
2019-04-06T05:53:36.135Z,20
2019-04-06T05:54:16.529Z,20
2019-04-06T05:57:03.965Z,25
2019-04-06T05:58:03.339Z,25
2019-04-06T05:58:48.828Z,25
2019-04-06T05:59:41.312Z,25
2019-04-06T06:00:33.746Z,25
2019-04-06T06:01:26.360Z,25
2019-04-06T06:02:19.658Z,25
2019-04-06T06:03:11.764Z,25
2019-04-06T06:04:04.386Z,25
2019-04-06T06:04:57.021Z,25
2019-04-06T06:05:49.299Z,30
2019-04-06T06:06:42.885Z,30
2019-04-06T06:07:35.349Z,30
2019-04-06T06:08:27.949Z,35
2019-04-06T06:09:19.945Z,35
2019-04-06T06:10:12.137Z,35
2019-04-06T06:11:04.164Z,35
2019-04-06T06:11:56.540Z,35
2019-04-06T06:12:48.781Z,35
2019-04-06T06:13:40.756Z,35
2019-04-06T06:14:33.270Z,35
2019-04-06T06:15:25.467Z,30
2019-04-06T06:16:18.575Z,35
2019-04-06T06:17:10.800Z,30
2019-04-06T06:18:03.374Z,35
2019-04-06T06:18:58.153Z,35
2019-04-06T06:19:50.492Z,35
2019-04-06T06:20:44.549Z,35
2019-04-06T06:21:41.368Z,70
2019-04-06T06:22:33.527Z,45
2019-04-06T06:23:26.093Z,35
2019-04-06T06:24:20.157Z,35
2019-04-06T06:25:16.802Z,35
2019-04-06T06:26:12.375Z,35
2019-04-06T06:27:04.376Z,35
2019-04-06T06:28:01.884Z,35
2019-04-06T06:32:43.936Z,30
2019-04-06T06:33:24.394Z,30
2019-04-06T06:34:04.746Z,35
2019-04-06T06:34:45.185Z,35
2019-04-06T06:35:25.554Z,30
2019-04-06T06:36:05.975Z,35
2019-04-06T06:36:46.424Z,35
2019-04-06T06:37:28.605Z,35
2019-04-06T06:38:08.989Z,35
2019-04-06T06:38:49.465Z,35
2019-04-06T06:39:29.975Z,35
2019-04-06T06:40:10.353Z,35
2019-04-06T06:40:50.678Z,35
2019-04-06T06:41:31.048Z,40
2019-04-06T06:42:11.526Z,35
2019-04-06T06:42:52.019Z,35
2019-04-06T06:43:32.922Z,35
2019-04-06T06:44:13.328Z,35
2019-04-06T06:44:53.666Z,35
2019-04-06T06:45:34.169Z,40
2019-04-06T06:46:14.639Z,40
2019-04-06T06:46:55.283Z,40
2019-04-06T06:47:35.630Z,40
2019-04-06T06:48:16.362Z,35
2019-04-06T06:48:57.021Z,35
2019-04-06T06:49:37.747Z,35
2019-04-06T06:50:18.108Z,35
2019-04-06T06:51:02.753Z,35
2019-04-06T06:51:42.957Z,30
2019-04-06T06:52:23.303Z,30
2019-04-06T06:53:03.846Z,30
2019-04-06T06:53:44.499Z,30
2019-04-06T06:54:24.943Z,30
2019-04-06T06:55:05.330Z,30
2019-04-06T06:55:45.936Z,30
2019-04-06T06:56:26.634Z,30
2019-04-06T06:57:06.850Z,30
2019-04-06T06:57:47.254Z,30
2019-04-06T06:58:27.722Z,30
2019-04-06T06:59:08.112Z,30
2019-04-06T06:59:48.651Z,35
2019-04-06T07:00:29.226Z,35
2019-04-06T07:01:09.512Z,35
2019-04-06T07:01:49.958Z,35
2019-04-06T07:02:30.655Z,35
2019-04-06T07:03:11.046Z,40
2019-04-06T07:03:51.375Z,40
2019-04-06T07:04:31.764Z,40
2019-04-06T07:05:13.516Z,40
2019-04-06T07:05:54.279Z,45
2019-04-06T07:06:34.045Z,50
2019-04-06T07:07:14.453Z,60
2019-04-06T07:07:54.844Z,65
2019-04-06T07:08:35.262Z,75
2019-04-06T07:09:15.743Z,80
2019-04-06T07:10:04.895Z,85
2019-04-06T07:10:37.108Z,85
2019-04-06T07:11:17.442Z,90
2019-04-06T07:11:58.250Z,90
2019-04-06T07:12:38.613Z,90
2019-04-06T07:13:19.024Z,115
2019-04-06T07:13:59.530Z,115
2019-04-06T07:14:39.967Z,100
2019-04-06T07:15:20.398Z,90
2019-04-06T07:16:01.079Z,85
2019-04-06T07:16:41.639Z,95
2019-04-06T07:17:21.980Z,85
2019-04-06T07:18:02.488Z,100
2019-04-06T07:18:42.969Z,125
2019-04-06T07:19:23.405Z,150
2019-04-06T07:20:03.893Z,150
2019-04-06T07:20:44.433Z,115
2019-04-06T07:21:24.831Z,145
2019-04-06T07:22:05.195Z,140
2019-04-06T07:22:45.617Z,155
2019-04-06T07:23:26.034Z,105
2019-04-06T07:24:06.408Z,100
2019-04-06T07:24:47.038Z,110
2019-04-06T07:25:27.396Z,110
2019-04-06T07:26:07.940Z,125
2019-04-06T07:26:48.207Z,135
2019-04-06T07:27:28.558Z,120
2019-04-06T07:28:08.992Z,130
2019-04-06T07:28:49.425Z,130
2019-04-06T07:29:30.005Z,125
2019-04-06T07:30:10.303Z,115
2019-04-06T07:30:50.729Z,100
2019-04-06T07:31:31.295Z,100
2019-04-06T07:32:11.643Z,110
2019-04-06T07:32:52.029Z,110
2019-04-06T07:33:32.459Z,115
2019-04-06T07:34:12.920Z,105
2019-04-06T07:34:53.307Z,100
2019-04-06T07:35:33.903Z,100
2019-04-06T07:36:14.363Z,100
2019-04-06T07:36:54.764Z,95
2019-04-06T07:37:35.461Z,110
2019-04-06T07:38:15.579Z,120
2019-04-06T07:38:55.978Z,115
2019-04-06T07:39:36.421Z,115
2019-04-06T07:40:16.842Z,110
2019-04-06T07:40:57.489Z,90
2019-04-06T07:41:37.967Z,85
2019-04-06T07:42:18.561Z,80
2019-04-06T07:42:58.775Z,70
2019-04-06T07:43:39.250Z,60
2019-04-06T07:44:19.674Z,60
2019-04-06T07:45:00.092Z,60
2019-04-06T07:45:40.490Z,60
2019-04-06T07:46:20.898Z,60
2019-04-06T07:47:01.312Z,60
2019-04-06T07:47:41.707Z,60
2019-04-06T07:48:22.154Z,60
2019-04-06T07:49:08.231Z,65
2019-04-06T07:49:43.177Z,65
2019-04-06T07:50:24.458Z,70
2019-04-06T07:51:05.813Z,75
2019-04-06T07:51:46.057Z,75
2019-04-06T07:52:26.556Z,80
2019-04-06T07:53:07.055Z,85
2019-04-06T07:53:47.388Z,85
2019-04-06T07:54:28.125Z,90
2019-04-06T07:55:08.237Z,95
2019-04-06T07:55:48.644Z,100
2019-04-06T07:56:29.128Z,105
2019-04-06T07:57:09.491Z,110
2019-04-06T07:57:50.002Z,105
2019-04-06T07:58:30.287Z,105
2019-04-06T07:59:10.680Z,110
2019-04-06T07:59:51.069Z,115
2019-04-06T08:00:31.579Z,120
2019-04-06T08:01:11.909Z,125
2019-04-06T08:01:52.319Z,125
2019-04-06T08:02:32.773Z,130
2019-04-06T08:03:13.095Z,125
2019-04-06T08:03:53.615Z,125
2019-04-06T08:04:33.945Z,115
2019-04-06T08:05:14.654Z,115
2019-04-06T08:05:55.087Z,120
2019-04-06T08:06:36.045Z,120
2019-04-06T08:07:16.762Z,115
2019-04-06T08:07:57.011Z,115
2019-04-06T08:10:27.176Z,140
2019-04-06T08:11:07.619Z,145
2019-04-06T08:11:48.035Z,140
2019-04-06T08:12:28.475Z,145
2019-04-06T08:13:08.952Z,145
2019-04-06T08:13:49.501Z,135
2019-04-06T08:14:29.792Z,145
2019-04-06T08:15:10.213Z,145
2019-04-06T08:15:50.759Z,140
2019-04-06T08:16:31.028Z,140
2019-04-06T08:17:11.446Z,140
2019-04-06T08:17:51.869Z,140
2019-04-06T08:18:32.424Z,140
2019-04-06T08:19:12.797Z,140
2019-04-06T08:19:53.246Z,135
2019-04-06T08:20:33.628Z,135
2019-04-06T08:21:14.116Z,135
2019-04-06T08:21:54.819Z,135
2019-04-06T08:22:36.974Z,135
2019-04-06T08:23:17.171Z,135
2019-04-06T08:23:58.795Z,130
2019-04-06T08:24:39.363Z,130
2019-04-06T08:25:19.814Z,130
2019-04-06T08:26:00.272Z,130
2019-04-06T08:26:40.670Z,130
2019-04-06T08:27:21.217Z,130
2019-04-06T08:28:01.530Z,130
2019-04-06T08:28:41.962Z,125
2019-04-06T08:29:22.596Z,125
2019-04-06T08:30:03.246Z,125
2019-04-06T08:30:45.915Z,125
2019-04-06T08:31:24.131Z,125
2019-04-06T08:32:04.668Z,125
2019-04-06T08:32:45.402Z,125
2019-04-06T08:33:25.482Z,125
2019-04-06T08:34:06.036Z,120
2019-04-06T08:34:46.280Z,120
2019-04-06T08:35:26.917Z,120
2019-04-06T08:36:07.137Z,120
2019-04-06T08:36:47.557Z,120
2019-04-06T08:37:28.152Z,120
2019-04-06T08:38:08.589Z,115
2019-04-06T08:38:49.113Z,115
2019-04-06T08:39:29.568Z,115
2019-04-06T08:40:10.102Z,115
2019-04-06T08:40:50.542Z,115
2019-04-06T08:41:31.090Z,115
2019-04-06T08:42:11.538Z,110
2019-04-06T08:42:52.710Z,115
2019-04-06T08:45:35.976Z,110
2019-04-06T08:46:29.089Z,110
2019-04-06T08:47:22.256Z,110
2019-04-06T08:48:15.145Z,110
2019-04-06T08:49:09.190Z,110
2019-04-06T08:50:03.092Z,105
2019-04-06T08:50:58.662Z,105
2019-04-06T08:51:52.271Z,100
2019-04-06T08:52:45.629Z,100
2019-04-06T08:53:39.907Z,105
2019-04-06T08:54:36.499Z,105
2019-04-06T08:55:29.067Z,105
2019-04-06T08:56:22.065Z,100
2019-04-06T08:57:15.880Z,100
2019-04-06T08:58:08.852Z,100
2019-04-06T08:59:10.394Z,100
2019-04-06T08:59:54.728Z,100
2019-04-06T09:00:48.568Z,100
2019-04-06T09:01:42.804Z,100
2019-04-06T09:02:35.727Z,105
2019-04-06T09:03:35.203Z,105
2019-04-06T09:04:29.794Z,110
2019-04-06T09:05:22.480Z,105
2019-04-06T09:06:15.237Z,105
2019-04-06T09:07:08.351Z,105
2019-04-06T09:08:02.232Z,110
2019-04-06T09:08:55.446Z,110
2019-04-06T09:09:47.968Z,110
2019-04-06T09:10:42.596Z,115
2019-04-06T09:11:36.657Z,110
2019-04-06T09:12:30.982Z,110
2019-04-06T09:13:24.551Z,110
2019-04-06T09:14:19.415Z,105
2019-04-06T09:15:12.457Z,105
2019-04-06T09:16:05.202Z,110
2019-04-06T09:17:04.297Z,105
2019-04-06T09:17:58.286Z,105
2019-04-06T09:18:51.543Z,110
2019-04-06T09:19:44.489Z,100
2019-04-06T09:20:37.119Z,100
2019-04-06T09:21:34.760Z,95
2019-04-06T09:22:27.072Z,95
2019-04-06T09:23:22.113Z,95
2019-04-06T09:24:15.902Z,105
2019-04-06T09:25:10.164Z,110
2019-04-06T09:26:03.725Z,105
2019-04-06T09:26:56.140Z,85
2019-04-06T09:27:48.741Z,90
2019-04-06T09:28:42.689Z,95
2019-04-06T09:29:35.047Z,85
2019-04-06T09:30:27.497Z,90
2019-04-06T09:31:20.567Z,90
2019-04-06T09:32:14.563Z,100
2019-04-06T09:33:07.237Z,105
2019-04-06T09:34:01.238Z,90
2019-04-06T09:34:55.480Z,100
2019-04-06T09:35:48.356Z,95
2019-04-06T09:36:41.836Z,100
2019-04-06T09:37:37.363Z,100
2019-04-06T09:38:31.472Z,95
2019-04-06T09:39:24.153Z,95
2019-04-06T09:40:19.291Z,90
2019-04-06T09:41:16.107Z,75
2019-04-06T09:42:10.708Z,75
2019-04-06T09:43:03.344Z,75
2019-04-06T09:43:57.247Z,80
2019-04-06T09:44:50.558Z,80
2019-04-06T09:45:43.124Z,80
2019-04-06T09:46:35.401Z,80
2019-04-06T09:47:28.636Z,85
2019-04-06T09:48:21.107Z,80
2019-04-06T09:49:13.828Z,80
2019-04-06T09:50:08.128Z,95
2019-04-06T09:51:00.650Z,75
2019-04-06T09:51:53.838Z,80
2019-04-06T09:52:46.074Z,90
2019-04-06T09:53:42.079Z,85
2019-04-06T09:54:39.805Z,90
2019-04-06T09:55:34.193Z,95
2019-04-06T09:56:28.334Z,85
2019-04-06T09:57:20.699Z,85
2019-04-06T09:58:30.614Z,85
2019-04-06T09:59:44.019Z,70
2019-04-06T10:00:45.356Z,85
2019-04-06T10:04:30.152Z,70
2019-04-06T10:05:10.251Z,70
2019-04-06T10:05:50.819Z,70
2019-04-06T10:06:32.347Z,75
2019-04-06T10:07:11.883Z,75
2019-04-06T10:07:52.339Z,75
2019-04-06T10:08:32.634Z,70
2019-04-06T10:09:13.082Z,75
2019-04-06T10:09:55.415Z,75
2019-04-06T10:10:37.090Z,85
2019-04-06T10:11:17.222Z,70
2019-04-06T10:11:57.817Z,65
2019-04-06T10:12:38.183Z,65
2019-04-06T10:13:18.845Z,65
2019-04-06T10:13:58.982Z,65
2019-04-06T10:14:39.374Z,75
2019-04-06T10:15:20.153Z,80
2019-04-06T10:16:00.374Z,75
2019-04-06T10:16:40.749Z,75
2019-04-06T10:17:21.100Z,85
2019-04-06T10:18:01.705Z,75
2019-04-06T10:18:42.270Z,75
2019-04-06T10:19:23.144Z,75
2019-04-06T10:20:03.566Z,70
2019-04-06T10:20:44.248Z,70
2019-04-06T10:21:24.679Z,70
2019-04-06T10:22:05.149Z,65
2019-04-06T10:22:49.341Z,65
2019-04-06T10:23:29.693Z,65
2019-04-06T10:24:10.150Z,70
2019-04-06T10:24:52.571Z,70
2019-04-06T10:25:36.078Z,70
2019-04-06T10:26:15.681Z,70
2019-04-06T10:26:55.866Z,85
2019-04-06T10:27:37.911Z,90
2019-04-06T10:28:19.358Z,70
2019-04-06T10:28:59.661Z,70
2019-04-06T11:09:21.246Z,70
2019-04-06T11:10:15.067Z,70
2019-04-06T11:11:08.069Z,70
2019-04-06T11:12:00.212Z,70
2019-04-06T11:12:52.532Z,70
2019-04-06T11:13:45.559Z,70
2019-04-06T11:14:38.564Z,70
2019-04-06T11:15:33.331Z,70
2019-04-06T11:16:26.897Z,70
2019-04-06T11:18:51.023Z,70
2019-04-06T11:19:31.471Z,70
2019-04-06T11:20:13.292Z,70
2019-04-06T11:20:54.666Z,65
2019-04-06T11:21:36.909Z,65
2019-04-06T11:22:18.004Z,65
2019-04-06T11:23:00.305Z,65
2019-04-06T11:23:40.751Z,55
2019-04-06T11:24:21.607Z,55
2019-04-06T11:25:03.104Z,65
2019-04-06T11:25:44.243Z,65
2019-04-06T11:26:24.595Z,65
2019-04-06T11:28:56.808Z,65
2019-04-06T11:29:49.739Z,65
2019-04-06T11:30:45.694Z,65
2019-04-06T11:31:50.225Z,65
2019-04-06T11:32:51.193Z,65
2019-04-06T11:33:43.353Z,65
2019-04-06T11:34:52.407Z,65
2019-04-06T11:35:44.724Z,65
2019-04-06T11:36:37.081Z,65
2019-04-06T11:37:29.520Z,60
2019-04-06T11:38:23.141Z,50
2019-04-06T11:39:16.257Z,65
2019-04-06T11:40:11.733Z,60
2019-04-06T11:41:04.128Z,60
2019-04-06T11:41:58.824Z,60
2019-04-06T11:42:51.278Z,60
2019-04-06T11:43:43.903Z,60
2019-04-06T11:44:36.205Z,60
2019-04-06T11:45:31.357Z,50
2019-04-06T11:49:42.671Z,60
2019-04-06T11:50:36.082Z,60
2019-04-06T11:51:29.187Z,60
2019-04-06T11:52:21.519Z,60
2019-04-06T11:53:15.128Z,60
2019-04-06T11:58:48.688Z,60
2019-04-06T11:59:47.710Z,60
2019-04-06T12:00:39.904Z,60
2019-04-06T12:01:42.020Z,60
2019-04-06T12:02:35.084Z,60
2019-04-06T12:03:27.276Z,60
2019-04-06T12:04:20.147Z,60
2019-04-06T12:05:13.436Z,60
2019-04-06T12:08:00.792Z,60
2019-04-06T12:08:54.907Z,60
2019-04-06T12:09:50.560Z,60
2019-04-06T12:10:45.873Z,60
2019-04-06T12:11:42.175Z,60
2019-04-06T12:12:50.800Z,60
2019-04-06T12:13:45.875Z,60
2019-04-06T12:14:39.285Z,60
2019-04-06T12:15:41.295Z,60
2019-04-06T12:16:33.886Z,60
2019-04-06T12:17:26.496Z,60
2019-04-06T12:18:26.040Z,60
2019-04-06T12:19:17.515Z,60
2019-04-06T12:20:09.741Z,60
2019-04-06T12:21:04.113Z,60
2019-04-06T12:21:58.400Z,60
2019-04-06T12:22:51.238Z,60
2019-04-06T12:23:44.753Z,60
2019-04-06T12:24:43.734Z,60
2019-04-06T12:25:41.568Z,60
2019-04-06T12:26:40.643Z,55
2019-04-06T12:27:41.522Z,55
2019-04-06T12:28:46.322Z,55
2019-04-06T12:29:41.137Z,55
2019-04-06T12:30:37.912Z,55
2019-04-06T12:31:34.600Z,55
2019-04-06T12:32:39.026Z,55
2019-04-06T12:33:42.736Z,55
2019-04-06T12:34:47.551Z,55
2019-04-06T12:37:02.829Z,55
2019-04-06T12:37:44.741Z,55
2019-04-06T12:38:25.759Z,55
2019-04-06T12:39:06.397Z,60
2019-04-06T12:39:52.951Z,60